Time;durP1;ratioP1;P1;durP2;ratioP2;P2;SDS_P1;SDS_P2;PMS_P1;PMS_P2;Temp;Humidity;BMP_temperature;BMP_pressure;BME280_temperature;BME280_humidity;BME280_pressure;Samples;Min_cycle;Max_cycle;Signal;HPM_P1;HPM_P2
2021/11/26 00:01:00;;;;;;;52.42;26.42;;;3.70;99.90;;;;;;5054601;28;20261;-70
2021/11/26 00:03:27;;;;;;;47.60;25.45;;;3.60;99.90;;;;;;5054466;28;20294;-69
2021/11/26 00:05:54;;;;;;;46.65;25.52;;;3.70;99.90;;;;;;5054200;28;20258;-70
2021/11/26 00:08:22;;;;;;;47.22;25.23;;;3.70;99.90;;;;;;5053960;28;20265;-70
2021/11/26 00:10:49;;;;;;;48.20;27.08;;;3.80;99.90;;;;;;5054335;28;20262;-69
2021/11/26 00:13:16;;;;;;;49.53;25.48;;;3.70;99.90;;;;;;5054309;28;20246;-70
2021/11/26 00:15:43;;;;;;;50.08;26.00;;;3.60;99.90;;;;;;5053936;28;20211;-70
2021/11/26 00:18:17;;;;;;;45.97;25.02;;;3.60;99.90;;;;;;5054099;28;20290;-69
2021/11/26 00:20:44;;;;;;;48.38;23.65;;;3.70;99.90;;;;;;5053874;28;20227;-69
2021/11/26 00:23:12;;;;;;;43.90;24.48;;;3.80;99.90;;;;;;5053861;28;20261;-69
2021/11/26 00:25:40;;;;;;;54.60;27.50;;;3.80;99.90;;;;;;5053827;28;20230;-70
2021/11/26 00:28:07;;;;;;;48.72;23.55;;;3.60;99.90;;;;;;5053932;28;20311;-68
2021/11/26 00:30:35;;;;;;;47.92;25.90;;;3.60;99.90;;;;;;5053913;28;20251;-70
2021/11/26 00:33:02;;;;;;;49.33;27.80;;;3.60;99.90;;;;;;5053837;28;20242;-69
2021/11/26 00:35:29;;;;;;;49.35;26.58;;;3.60;99.90;;;;;;5053527;28;20206;-69
2021/11/26 00:37:56;;;;;;;47.13;27.63;;;3.70;99.90;;;;;;5053950;28;20295;-69
2021/11/26 00:40:22;;;;;;;51.85;25.02;;;3.60;99.90;;;;;;5053490;28;20720;-69
2021/11/26 00:42:51;;;;;;;51.95;26.00;;;3.50;99.90;;;;;;5053647;28;20290;-69
2021/11/26 00:45:18;;;;;;;54.25;28.08;;;3.50;99.90;;;;;;5053496;28;20315;-69
2021/11/26 00:47:45;;;;;;;51.53;27.45;;;3.60;99.90;;;;;;5053415;28;20246;-69
2021/11/26 00:50:14;;;;;;;54.67;26.48;;;3.60;99.90;;;;;;5053283;28;20231;-70
2021/11/26 00:52:41;;;;;;;46.50;25.33;;;3.50;99.90;;;;;;5053671;28;20241;-69
2021/11/26 00:55:10;;;;;;;49.75;27.55;;;3.50;99.90;;;;;;5053324;28;20286;-68
2021/11/26 00:57:36;;;;;;;49.90;26.25;;;3.50;99.90;;;;;;5053463;28;20207;-67
2021/11/26 01:00:07;;;;;;;49.42;26.80;;;3.70;99.90;;;;;;5053144;28;20314;-67
2021/11/26 01:02:35;;;;;;;50.80;26.20;;;3.70;99.90;;;;;;5053020;28;20247;-67
2021/11/26 01:05:02;;;;;;;51.20;26.40;;;3.70;99.90;;;;;;5053479;28;20647;-68
2021/11/26 01:07:29;;;;;;;46.40;26.20;;;3.70;99.90;;;;;;5053238;28;20235;-69
2021/11/26 01:09:56;;;;;;;48.13;26.20;;;3.80;99.90;;;;;;5052907;28;20255;-67
2021/11/26 01:12:22;;;;;;;42.83;25.38;;;3.90;99.90;;;;;;5053353;28;20234;-68
2021/11/26 01:14:50;;;;;;;46.97;26.00;;;4.00;99.90;;;;;;5052967;28;20235;-70
2021/11/26 01:17:18;;;;;;;53.67;28.50;;;4.00;99.90;;;;;;5053010;28;20254;-69
2021/11/26 01:19:46;;;;;;;45.50;26.88;;;3.90;99.90;;;;;;5052733;28;20306;-70
2021/11/26 01:22:13;;;;;;;52.45;26.67;;;3.80;99.90;;;;;;5053257;28;20291;-68
2021/11/26 01:24:40;;;;;;;47.85;27.05;;;3.70;99.90;;;;;;5052511;28;20265;-69
2021/11/26 01:27:07;;;;;;;52.60;26.05;;;3.50;99.90;;;;;;5053165;28;20235;-70
2021/11/26 01:29:35;;;;;;;54.78;26.85;;;3.40;99.90;;;;;;5053037;28;20219;-70
2021/11/26 01:32:02;;;;;;;48.00;26.98;;;3.40;99.90;;;;;;5053084;28;20235;-69
2021/11/26 01:34:30;;;;;;;57.22;28.50;;;3.60;99.90;;;;;;5052254;28;20579;-70
2021/11/26 01:36:57;;;;;;;49.03;25.77;;;3.70;99.90;;;;;;5053200;28;20291;-69
2021/11/26 01:39:24;;;;;;;50.90;26.30;;;3.70;99.90;;;;;;5052752;28;20720;-71
2021/11/26 01:41:53;;;;;;;44.55;25.13;;;3.70;99.90;;;;;;5053086;28;20239;-70
2021/11/26 01:44:20;;;;;;;48.28;25.35;;;3.80;99.90;;;;;;5052780;28;20221;-71
2021/11/26 01:46:48;;;;;;;44.38;24.50;;;3.80;99.90;;;;;;5053548;28;20219;-70
2021/11/26 01:49:16;;;;;;;47.67;25.52;;;3.80;99.90;;;;;;5052957;28;20258;-70
2021/11/26 01:51:44;;;;;;;40.08;23.25;;;3.80;99.90;;;;;;5052988;28;20207;-70
2021/11/26 01:54:11;;;;;;;50.75;25.10;;;3.70;99.90;;;;;;5052818;28;20298;-69
2021/11/26 01:56:38;;;;;;;45.88;26.05;;;3.80;99.90;;;;;;5052514;28;20681;-70
2021/11/26 01:59:06;;;;;;;46.70;24.88;;;3.80;99.90;;;;;;5061649;28;20320;-69
2021/11/26 02:01:33;;;;;;;52.17;27.08;;;3.60;99.90;;;;;;5094346;28;20724;-71
2021/11/26 02:04:00;;;;;;;50.95;26.00;;;3.50;99.90;;;;;;5094111;28;20245;-72
2021/11/26 02:06:27;;;;;;;46.45;25.10;;;3.20;99.90;;;;;;5093699;28;20257;-71
2021/11/26 02:08:55;;;;;;;50.08;25.48;;;3.10;99.90;;;;;;5093916;28;20263;-70
2021/11/26 02:11:22;;;;;;;47.38;24.70;;;3.20;99.90;;;;;;5093968;28;20234;-70
2021/11/26 02:13:49;;;;;;;43.95;25.20;;;3.10;99.90;;;;;;5093921;28;20245;-70
2021/11/26 02:16:16;;;;;;;43.47;25.33;;;3.20;99.90;;;;;;5093827;28;20238;-70
2021/11/26 02:18:47;;;;;;;42.92;24.70;;;3.20;99.90;;;;;;5094089;28;20430;-70
2021/11/26 02:21:16;;;;;;;46.35;24.42;;;3.30;99.90;;;;;;5094894;28;20289;-70
2021/11/26 02:23:43;;;;;;;47.83;26.33;;;3.50;99.90;;;;;;5094719;28;20347;-70
2021/11/26 02:26:10;;;;;;;48.33;25.88;;;3.40;99.90;;;;;;5093792;28;20265;-70
2021/11/26 02:28:37;;;;;;;50.45;24.65;;;3.40;99.90;;;;;;5094116;28;20204;-70
2021/11/26 02:31:04;;;;;;;54.03;25.60;;;3.40;99.90;;;;;;5094123;28;20293;-70
2021/11/26 02:33:31;;;;;;;46.88;25.95;;;3.40;99.90;;;;;;5094354;28;20289;-70
2021/11/26 02:35:59;;;;;;;56.33;27.70;;;3.50;99.90;;;;;;5093685;28;20294;-70
2021/11/26 02:38:28;;;;;;;51.03;26.83;;;3.60;99.90;;;;;;5093846;28;20252;-70
2021/11/26 02:40:56;;;;;;;49.47;27.45;;;3.40;99.90;;;;;;5093455;28;20723;-70
2021/11/26 02:43:23;;;;;;;48.17;26.92;;;3.30;99.90;;;;;;5093704;28;20234;-70
2021/11/26 02:45:50;;;;;;;44.85;24.90;;;3.20;99.90;;;;;;5096723;28;20218;-70
2021/11/26 02:48:18;;;;;;;47.35;25.35;;;3.30;99.90;;;;;;5097760;28;20292;-70
2021/11/26 02:50:46;;;;;;;43.65;23.25;;;3.30;99.90;;;;;;5097606;28;20632;-70
2021/11/26 02:53:14;;;;;;;52.08;26.13;;;3.30;99.90;;;;;;5097615;28;20229;-70
2021/11/26 02:55:42;;;;;;;48.53;25.63;;;3.30;99.90;;;;;;5097587;28;20229;-70
2021/11/26 02:58:09;;;;;;;44.40;24.33;;;3.20;99.90;;;;;;5097872;28;20233;-70
2021/11/26 03:00:38;;;;;;;51.90;26.20;;;3.40;99.90;;;;;;5097730;28;20221;-70
2021/11/26 03:03:05;;;;;;;47.35;25.77;;;3.40;99.90;;;;;;5097803;28;20248;-70
2021/11/26 03:05:33;;;;;;;44.97;25.38;;;3.50;99.90;;;;;;5097467;28;20257;-70
2021/11/26 03:08:00;;;;;;;49.38;25.92;;;3.40;99.90;;;;;;5097309;28;20233;-70
2021/11/26 03:10:28;;;;;;;47.38;25.33;;;3.30;99.90;;;;;;5097444;28;20222;-70
2021/11/26 03:12:58;;;;;;;46.20;26.80;;;3.40;99.90;;;;;;5097381;28;20629;-70
2021/11/26 03:15:26;;;;;;;48.15;25.77;;;3.40;99.90;;;;;;5097061;28;20248;-70
2021/11/26 03:17:55;;;;;;;45.90;26.00;;;3.40;99.90;;;;;;5097095;28;20237;-70
2021/11/26 03:20:22;;;;;;;45.90;26.45;;;3.40;99.90;;;;;;5097227;28;20221;-70
2021/11/26 03:22:49;;;;;;;51.50;26.58;;;3.40;99.90;;;;;;5097181;28;20234;-70
2021/11/26 03:25:16;;;;;;;48.85;26.35;;;3.40;99.90;;;;;;5096801;28;20245;-70
2021/11/26 03:27:43;;;;;;;46.00;24.17;;;3.30;99.90;;;;;;5097186;28;20285;-70
2021/11/26 03:30:14;;;;;;;49.25;27.10;;;3.40;99.90;;;;;;5096850;28;20313;-70
2021/11/26 03:32:41;;;;;;;45.92;25.10;;;3.40;99.90;;;;;;5097103;28;20190;-70
2021/11/26 03:35:09;;;;;;;48.67;27.25;;;3.50;99.90;;;;;;5097216;28;20238;-70
2021/11/26 03:37:36;;;;;;;49.85;26.25;;;3.60;99.90;;;;;;5096935;28;20230;-70
2021/11/26 03:40:05;;;;;;;44.92;23.10;;;3.50;99.90;;;;;;5097128;28;20258;-70
2021/11/26 03:42:32;;;;;;;46.22;25.98;;;3.60;99.90;;;;;;5097048;28;20234;-70
2021/11/26 03:44:59;;;;;;;45.35;24.70;;;3.70;99.90;;;;;;5096782;28;20631;-70
2021/11/26 03:47:28;;;;;;;45.97;24.23;;;3.80;99.90;;;;;;5096757;28;20759;-70
2021/11/26 03:49:55;;;;;;;49.65;25.10;;;3.90;99.90;;;;;;5096905;28;20253;-70
2021/11/26 03:52:22;;;;;;;46.22;25.90;;;4.00;99.90;;;;;;5096737;28;20292;-70
2021/11/26 03:54:49;;;;;;;51.75;28.02;;;3.90;99.90;;;;;;5096585;28;20285;-70
2021/11/26 03:57:16;;;;;;;47.60;25.67;;;3.70;99.90;;;;;;5095715;28;20740;-70
2021/11/26 03:59:42;;;;;;;50.50;26.70;;;3.60;99.90;;;;;;5096165;28;20258;-70
2021/11/26 04:02:09;;;;;;;52.03;28.15;;;3.60;99.90;;;;;;5096283;28;20241;-70
2021/11/26 04:04:38;;;;;;;52.33;27.65;;;3.50;99.90;;;;;;5096138;28;20233;-70
2021/11/26 04:07:05;;;;;;;48.42;24.67;;;3.30;99.90;;;;;;5096132;28;20268;-70
2021/11/26 04:09:32;;;;;;;47.58;24.30;;;3.20;99.90;;;;;;5096073;28;20309;-70
2021/11/26 04:11:59;;;;;;;47.17;25.25;;;3.30;99.90;;;;;;5096421;28;20229;-70
2021/11/26 04:14:26;;;;;;;46.00;24.05;;;3.40;99.90;;;;;;5096000;28;20202;-71
2021/11/26 04:16:53;;;;;;;39.03;22.58;;;3.60;99.90;;;;;;5096451;28;20206;-70
2021/11/26 04:19:20;;;;;;;40.75;21.50;;;3.70;99.90;;;;;;5096844;28;20313;-70
2021/11/26 04:21:48;;;;;;;40.95;21.80;;;3.70;99.90;;;;;;5096469;28;20293;-70
2021/11/26 04:24:15;;;;;;;44.75;23.20;;;3.90;99.90;;;;;;5096423;28;20312;-70
2021/11/26 04:26:42;;;;;;;47.05;24.45;;;4.00;99.90;;;;;;5095833;28;20308;-70
2021/11/26 04:29:09;;;;;;;46.20;25.45;;;3.90;99.90;;;;;;5095655;28;20312;-70
2021/11/26 04:31:36;;;;;;;47.75;25.55;;;3.80;99.90;;;;;;5095960;28;20276;-70
2021/11/26 04:34:02;;;;;;;51.35;25.27;;;3.80;99.90;;;;;;5095854;28;20292;-70
2021/11/26 04:36:29;;;;;;;49.28;24.30;;;3.60;99.90;;;;;;5095969;28;20292;-70
2021/11/26 04:38:58;;;;;;;51.60;26.55;;;3.70;99.90;;;;;;5096296;28;20250;-70
2021/11/26 04:41:25;;;;;;;48.72;26.85;;;3.60;99.90;;;;;;5095764;28;20638;-70
2021/11/26 04:43:51;;;;;;;50.30;25.73;;;3.50;99.90;;;;;;5095484;28;20233;-70
2021/11/26 04:46:18;;;;;;;52.08;26.65;;;3.40;99.90;;;;;;5095554;28;20246;-70
2021/11/26 04:48:45;;;;;;;48.67;25.65;;;3.50;99.90;;;;;;5095464;28;20245;-70
2021/11/26 04:51:12;;;;;;;50.90;25.88;;;3.60;99.90;;;;;;5095755;28;20233;-70
2021/11/26 04:53:42;;;;;;;51.30;26.63;;;3.70;99.90;;;;;;5095773;28;20605;-70
2021/11/26 04:56:10;;;;;;;53.05;27.70;;;3.80;99.90;;;;;;5095478;28;20281;-70
2021/11/26 04:58:37;;;;;;;52.70;27.83;;;3.80;99.90;;;;;;5095596;28;20226;-70
2021/11/26 05:01:05;;;;;;;52.30;25.63;;;3.70;99.90;;;;;;5095136;28;20253;-70
2021/11/26 05:03:32;;;;;;;48.90;26.35;;;3.50;99.90;;;;;;5095594;28;20260;-70
2021/11/26 05:05:59;;;;;;;55.60;28.35;;;3.60;99.90;;;;;;5095155;28;20234;-70
2021/11/26 05:08:26;;;;;;;47.97;25.55;;;3.70;99.90;;;;;;5094560;28;20238;-71
2021/11/26 05:10:54;;;;;;;44.85;24.48;;;3.80;99.90;;;;;;5095424;28;20218;-69
2021/11/26 05:13:28;;;;;;;51.70;26.35;;;3.80;99.90;;;;;;5095339;28;20205;-70
2021/11/26 05:15:55;;;;;;;45.20;24.70;;;3.90;99.90;;;;;;5094708;28;20217;-70
2021/11/26 05:18:24;;;;;;;50.28;25.65;;;3.90;99.90;;;;;;5094948;28;20296;-70
2021/11/26 05:20:51;;;;;;;50.15;26.02;;;3.90;99.90;;;;;;5094826;28;20222;-70
2021/11/26 05:23:19;;;;;;;47.97;26.85;;;3.90;99.90;;;;;;5094577;28;20734;-70
2021/11/26 05:25:46;;;;;;;49.20;25.58;;;4.00;99.90;;;;;;5094409;28;20237;-70
2021/11/26 05:28:13;;;;;;;46.22;25.73;;;4.00;99.90;;;;;;5094668;28;20257;-70
2021/11/26 05:30:42;;;;;;;45.83;24.85;;;4.10;99.90;;;;;;5094723;28;20260;-70
2021/11/26 05:33:09;;;;;;;43.90;23.75;;;4.20;99.90;;;;;;5094509;28;20233;-70
2021/11/26 05:35:36;;;;;;;42.60;23.63;;;4.20;99.90;;;;;;5094305;28;20297;-69
2021/11/26 05:38:04;;;;;;;48.30;24.77;;;4.10;99.90;;;;;;5094604;28;20226;-70
2021/11/26 05:40:31;;;;;;;46.35;25.15;;;3.90;99.90;;;;;;5094561;28;20633;-70
2021/11/26 05:42:58;;;;;;;53.30;25.17;;;3.90;99.90;;;;;;5094347;28;20676;-70
2021/11/26 05:45:25;;;;;;;50.10;25.48;;;3.80;99.90;;;;;;5094422;28;20245;-70
2021/11/26 05:47:53;;;;;;;46.67;24.15;;;3.70;99.90;;;;;;5094184;28;20614;-70
2021/11/26 05:50:21;;;;;;;53.85;26.05;;;3.70;99.90;;;;;;5094236;28;20310;-70
2021/11/26 05:52:48;;;;;;;54.88;28.27;;;3.80;99.90;;;;;;5094324;28;20202;-70
2021/11/26 05:55:18;;;;;;;53.35;27.48;;;3.80;99.90;;;;;;5094056;28;20289;-70
2021/11/26 05:57:46;;;;;;;53.78;27.10;;;3.60;99.90;;;;;;5094161;28;20285;-70
2021/11/26 06:00:15;;;;;;;54.05;26.75;;;3.50;99.90;;;;;;5094034;28;20312;-70
2021/11/26 06:02:42;;;;;;;51.10;27.10;;;3.50;99.90;;;;;;5093764;28;20237;-69
2021/11/26 06:05:11;;;;;;;56.90;28.52;;;3.30;99.90;;;;;;5093874;28;20610;-70
2021/11/26 06:07:38;;;;;;;53.28;26.67;;;3.20;99.90;;;;;;5093945;28;20309;-70
2021/11/26 06:10:08;;;;;;;54.58;27.75;;;3.20;99.90;;;;;;5093999;28;20257;-70
2021/11/26 06:12:35;;;;;;;58.83;30.50;;;3.20;99.90;;;;;;5093687;28;20300;-70
2021/11/26 06:15:02;;;;;;;56.08;28.38;;;3.20;99.90;;;;;;5093717;28;20293;-70
2021/11/26 06:17:29;;;;;;;51.05;27.20;;;3.30;99.90;;;;;;5093639;28;20300;-70
2021/11/26 06:19:56;;;;;;;55.55;28.70;;;3.30;99.90;;;;;;5093515;28;20338;-70
2021/11/26 06:22:24;;;;;;;50.95;26.90;;;3.20;99.90;;;;;;5093914;28;20296;-70
2021/11/26 06:24:51;;;;;;;52.05;26.48;;;3.20;99.90;;;;;;5093613;28;20229;-71
2021/11/26 06:27:18;;;;;;;52.47;25.85;;;3.20;99.90;;;;;;5093667;28;20258;-70
2021/11/26 06:29:45;;;;;;;49.53;26.60;;;3.30;99.90;;;;;;5093580;28;20308;-70
2021/11/26 06:32:11;;;;;;;45.45;25.90;;;3.40;99.90;;;;;;5093708;28;20289;-70
2021/11/26 06:34:38;;;;;;;52.08;25.10;;;3.40;99.90;;;;;;5093981;28;20297;-70
2021/11/26 06:37:05;;;;;;;47.05;26.13;;;3.60;99.90;;;;;;5094449;28;20229;-70
2021/11/26 06:39:34;;;;;;;48.78;25.92;;;3.70;99.90;;;;;;5093959;28;20264;-70
2021/11/26 06:42:01;;;;;;;51.35;25.70;;;3.80;99.90;;;;;;5094137;28;20627;-70
2021/11/26 06:44:28;;;;;;;46.28;25.15;;;3.80;99.90;;;;;;5093811;28;20198;-69
2021/11/26 06:46:55;;;;;;;55.00;25.77;;;3.80;99.90;;;;;;5094174;28;20639;-70
2021/11/26 06:49:22;;;;;;;50.55;28.30;;;3.60;99.90;;;;;;5093476;28;20264;-70
2021/11/26 06:51:49;;;;;;;54.97;29.05;;;3.60;99.90;;;;;;5093689;28;20238;-70
2021/11/26 06:54:16;;;;;;;54.75;28.25;;;3.50;99.90;;;;;;5093737;28;20618;-70
2021/11/26 06:56:44;;;;;;;51.58;27.30;;;3.50;99.90;;;;;;5093481;28;20229;-70
2021/11/26 06:59:11;;;;;;;49.92;27.58;;;3.50;99.90;;;;;;5093619;28;20305;-70
2021/11/26 07:01:38;;;;;;;54.10;28.05;;;3.60;99.90;;;;;;5093605;28;20245;-70
2021/11/26 07:04:07;;;;;;;45.65;24.55;;;3.70;99.90;;;;;;5093253;28;20248;-70
2021/11/26 07:06:35;;;;;;;54.72;26.77;;;3.80;99.90;;;;;;5093137;28;20205;-69
2021/11/26 07:09:02;;;;;;;50.85;25.83;;;3.80;99.90;;;;;;5093209;28;20227;-70
2021/11/26 07:11:29;;;;;;;47.17;25.25;;;3.80;99.90;;;;;;5093061;28;20656;-69
2021/11/26 07:13:57;;;;;;;43.67;24.95;;;3.90;99.90;;;;;;5093096;28;20263;-69
2021/11/26 07:16:24;;;;;;;49.58;25.60;;;3.90;99.90;;;;;;5092973;28;20241;-70
2021/11/26 07:18:51;;;;;;;50.72;24.95;;;3.90;99.90;;;;;;5093160;28;20241;-70
2021/11/26 07:21:18;;;;;;;46.45;24.23;;;3.90;99.90;;;;;;5093284;28;20296;-70
2021/11/26 07:23:45;;;;;;;39.75;21.60;;;4.10;99.90;;;;;;5093103;28;20297;-70
2021/11/26 07:26:12;;;;;;;48.42;23.70;;;4.20;99.90;;;;;;5093026;28;20229;-70
2021/11/26 07:28:39;;;;;;;43.53;22.67;;;4.30;99.90;;;;;;5093000;28;20253;-70
2021/11/26 07:31:08;;;;;;;44.33;22.83;;;4.30;99.90;;;;;;5093092;28;20237;-70
2021/11/26 07:33:35;;;;;;;38.83;23.25;;;4.40;99.90;;;;;;5096773;28;20209;-69
2021/11/26 07:36:02;;;;;;;45.88;22.67;;;4.30;99.90;;;;;;5096414;28;20229;-69
2021/11/26 07:38:29;;;;;;;41.55;21.60;;;4.20;99.90;;;;;;5096628;28;20699;-70
2021/11/26 07:40:56;;;;;;;43.80;22.95;;;4.10;99.90;;;;;;5096634;28;20309;-70
2021/11/26 07:43:23;;;;;;;44.75;24.23;;;3.90;99.90;;;;;;5096619;28;20213;-69
2021/11/26 07:45:49;;;;;;;42.88;22.38;;;3.90;99.90;;;;;;5096447;28;20237;-69
2021/11/26 07:48:18;;;;;;;39.53;21.38;;;4.00;99.90;;;;;;5096409;28;20258;-70
2021/11/26 07:50:46;;;;;;;44.33;22.63;;;4.20;99.90;;;;;;5096080;28;20380;-70
2021/11/26 07:53:13;;;;;;;43.40;22.08;;;4.10;99.90;;;;;;5096175;28;20241;-70
2021/11/26 07:55:40;;;;;;;39.92;21.25;;;4.10;99.90;;;;;;5096117;28;20285;-70
2021/11/26 07:58:07;;;;;;;37.92;20.80;;;4.20;99.90;;;;;;5096621;28;20234;-70
2021/11/26 08:00:34;;;;;;;41.63;22.60;;;4.40;99.90;;;;;;5096312;28;20265;-70
2021/11/26 08:03:02;;;;;;;43.25;22.83;;;4.40;99.90;;;;;;5096452;28;20319;-70
2021/11/26 08:05:31;;;;;;;41.22;22.20;;;4.40;99.90;;;;;;5096185;28;20660;-70
2021/11/26 08:07:58;;;;;;;40.22;23.48;;;4.40;99.90;;;;;;5096211;28;20317;-70
2021/11/26 08:10:25;;;;;;;40.75;22.23;;;4.50;99.90;;;;;;5096228;28;20263;-70
2021/11/26 08:12:52;;;;;;;40.45;24.02;;;4.50;99.90;;;;;;5096270;28;20285;-70
2021/11/26 08:15:20;;;;;;;37.25;21.27;;;4.60;99.90;;;;;;5095821;28;20629;-70
2021/11/26 08:17:47;;;;;;;38.88;21.35;;;4.70;99.90;;;;;;5095986;28;20293;-70
2021/11/26 08:20:17;;;;;;;35.10;20.02;;;4.80;99.90;;;;;;5095659;28;20309;-70
2021/11/26 08:22:47;;;;;;;40.75;21.45;;;4.90;99.90;;;;;;5096007;28;20202;-69
2021/11/26 08:25:15;;;;;;;44.15;21.83;;;4.90;99.90;;;;;;5095544;28;20241;-70
2021/11/26 08:27:42;;;;;;;47.78;23.00;;;4.90;99.90;;;;;;5095772;28;20258;-70
2021/11/26 08:30:09;;;;;;;41.67;22.55;;;4.90;99.90;;;;;;5095618;28;20310;-69
2021/11/26 08:32:37;;;;;;;39.40;22.13;;;4.90;99.90;;;;;;5095699;28;20221;-69
2021/11/26 08:35:04;;;;;;;41.60;22.83;;;5.00;99.90;;;;;;5095395;28;20205;-69
2021/11/26 08:37:31;;;;;;;42.20;23.15;;;5.00;99.90;;;;;;5095701;28;20289;-69
2021/11/26 08:40:02;;;;;;;41.42;24.23;;;5.00;99.90;;;;;;5095657;28;20308;-69
2021/11/26 08:42:29;;;;;;;39.85;22.52;;;5.00;99.90;;;;;;5095492;28;20649;-69
2021/11/26 08:44:56;;;;;;;41.97;23.27;;;5.10;99.90;;;;;;5095142;28;20289;-70
2021/11/26 08:47:23;;;;;;;43.55;22.63;;;5.10;99.90;;;;;;5095439;28;20245;-69
2021/11/26 08:49:50;;;;;;;41.65;21.98;;;5.00;99.90;;;;;;5095676;28;20264;-70
2021/11/26 08:52:19;;;;;;;39.13;22.25;;;5.00;99.90;;;;;;5095303;28;20625;-69
2021/11/26 08:54:46;;;;;;;37.17;22.52;;;5.00;99.90;;;;;;5095095;28;20201;-70
2021/11/26 08:57:16;;;;;;;41.95;23.30;;;5.10;99.90;;;;;;5095421;28;20236;-69
2021/11/26 08:59:43;;;;;;;42.67;22.77;;;5.00;99.90;;;;;;5095489;28;20245;-70
2021/11/26 09:02:10;;;;;;;40.67;23.70;;;5.00;99.90;;;;;;5095713;28;20234;-70
2021/11/26 09:04:37;;;;;;;43.53;22.38;;;5.00;99.90;;;;;;5094824;28;20289;-70
2021/11/26 09:07:04;;;;;;;39.25;23.08;;;5.10;99.90;;;;;;5095025;28;20608;-70
2021/11/26 09:09:31;;;;;;;40.22;23.33;;;5.00;99.90;;;;;;5094914;28;20305;-69
2021/11/26 09:11:58;;;;;;;40.25;23.88;;;5.00;99.90;;;;;;5095185;28;20295;-70
2021/11/26 09:14:27;;;;;;;43.33;25.40;;;5.10;99.90;;;;;;5094704;28;20293;-70
2021/11/26 09:16:54;;;;;;;39.20;22.02;;;5.20;99.90;;;;;;5094751;28;20238;-70
2021/11/26 09:19:21;;;;;;;37.90;22.38;;;5.30;99.90;;;;;;5094465;28;20249;-69
2021/11/26 09:21:47;;;;;;;42.42;24.98;;;5.10;99.90;;;;;;5094514;28;20208;-69
2021/11/26 09:24:14;;;;;;;42.13;23.60;;;5.10;99.90;;;;;;5094674;28;20290;-70
2021/11/26 09:26:42;;;;;;;42.28;24.35;;;5.10;99.90;;;;;;5094433;28;20229;-70
2021/11/26 09:29:09;;;;;;;42.47;23.48;;;5.20;99.90;;;;;;5094458;28;20279;-69
2021/11/26 09:31:37;;;;;;;44.08;24.10;;;5.20;99.90;;;;;;5094404;28;20208;-70
2021/11/26 09:34:05;;;;;;;46.17;24.17;;;5.20;99.90;;;;;;5094660;28;20288;-74
2021/11/26 09:36:34;;;;;;;43.13;23.67;;;5.20;99.90;;;;;;5094577;28;20208;-69
2021/11/26 09:39:02;;;;;;;46.55;25.02;;;5.20;99.90;;;;;;5094562;28;20711;-73
2021/11/26 09:41:29;;;;;;;44.88;24.48;;;5.30;99.90;;;;;;5094421;28;20611;-70
2021/11/26 09:43:59;;;;;;;44.72;23.50;;;5.30;99.90;;;;;;5094696;28;20241;-70
2021/11/26 09:46:29;;;;;;;42.05;23.92;;;5.20;99.90;;;;;;5073964;28;20266;-73
2021/11/26 09:48:57;;;;;;;44.80;25.95;;;5.20;99.90;;;;;;5058808;28;20285;-68
2021/11/26 09:51:24;;;;;;;47.15;24.55;;;5.20;99.90;;;;;;5052758;28;20329;-67
2021/11/26 09:53:51;;;;;;;43.22;24.80;;;5.20;99.90;;;;;;5051916;28;20235;-68
2021/11/26 09:56:18;;;;;;;44.70;24.40;;;5.10;99.90;;;;;;5052759;28;20246;-68
2021/11/26 09:58:45;;;;;;;40.63;23.42;;;5.20;99.90;;;;;;5052779;28;20286;-68
2021/11/26 10:01:12;;;;;;;44.00;22.92;;;5.10;99.90;;;;;;5052750;28;20238;-68
2021/11/26 10:03:41;;;;;;;40.70;23.63;;;5.20;99.90;;;;;;5052644;28;20249;-68
2021/11/26 10:06:23;;;;;;;47.28;24.08;;;5.20;99.90;;;;;;5052417;28;20235;-67
2021/11/26 10:09:05;;;;;;;40.58;23.35;;;5.10;99.90;;;;;;5052834;28;20248;-69
2021/11/26 10:11:37;;;;;;;41.22;23.13;;;5.20;99.90;;;;;;5052619;28;20295;-68
2021/11/26 10:14:14;;;;;;;38.70;21.67;;;5.30;99.90;;;;;;5052520;28;20211;-68
2021/11/26 10:16:45;;;;;;;41.10;21.60;;;5.40;99.90;;;;;;5052502;28;20238;-68
2021/11/26 10:19:13;;;;;;;41.00;20.95;;;5.50;99.90;;;;;;5052490;28;20259;-67
2021/11/26 10:21:41;;;;;;;39.75;20.58;;;5.50;99.90;;;;;;5052509;28;20299;-68
2021/11/26 10:24:15;;;;;;;36.20;20.73;;;5.70;99.90;;;;;;5052516;28;20207;-67
2021/11/26 10:26:51;;;;;;;36.55;20.10;;;5.60;99.90;;;;;;5052129;28;20289;-67
2021/11/26 10:29:29;;;;;;;30.73;15.75;;;5.60;99.90;;;;;;5052123;28;20234;-67
2021/11/26 10:32:06;;;;;;;32.47;16.00;;;5.60;99.90;;;;;;5052223;28;20242;-68
2021/11/26 10:34:33;;;;;;;34.58;18.52;;;5.60;99.90;;;;;;5052201;28;20629;-67
2021/11/26 10:37:01;;;;;;;42.03;18.65;;;5.60;99.90;;;;;;5052589;28;20247;-67
2021/11/26 10:39:28;;;;;;;35.30;19.60;;;5.60;99.90;;;;;;5052009;28;20311;-66
2021/11/26 10:41:59;;;;;;;29.38;16.85;;;5.60;99.90;;;;;;5052303;28;20926;-66
2021/11/26 10:44:38;;;;;;;33.65;17.65;;;5.60;99.90;;;;;;5052373;28;20294;-66
2021/11/26 10:47:15;;;;;;;35.03;17.48;;;5.60;99.90;;;;;;5052333;28;20256;-67
2021/11/26 10:49:51;;;;;;;34.08;17.48;;;5.50;99.90;;;;;;5051810;28;20231;-66
2021/11/26 10:52:49;;;;;;;32.10;17.27;;;5.30;99.90;;;;;;5052325;28;20191;-67
2021/11/26 10:58:18;;;;;;;31.85;17.33;;;5.50;99.90;;;;;;5052077;28;20194;-67
2021/11/26 11:00:45;;;;;;;34.55;17.33;;;5.60;99.90;;;;;;5051720;28;20223;-66
2021/11/26 11:03:15;;;;;;;28.58;16.60;;;5.60;99.90;;;;;;5052023;28;20235;-66
2021/11/26 11:05:42;;;;;;;29.65;16.88;;;5.60;99.90;;;;;;5052075;28;20204;-66
2021/11/26 11:08:21;;;;;;;36.03;18.42;;;5.70;99.90;;;;;;5055530;28;20250;-67
2021/11/26 11:10:48;;;;;;;33.45;17.60;;;5.60;99.90;;;;;;5055704;28;20273;-66
2021/11/26 11:13:17;;;;;;;34.38;17.48;;;5.60;99.90;;;;;;5056184;28;20239;-66
2021/11/26 11:15:45;;;;;;;31.70;16.40;;;5.60;99.90;;;;;;5055641;28;20303;-66
2021/11/26 11:18:13;;;;;;;29.75;16.65;;;5.60;99.90;;;;;;5055715;28;20238;-66
2021/11/26 11:20:41;;;;;;;29.70;16.42;;;5.60;99.90;;;;;;5055369;28;20230;-66
2021/11/26 11:23:10;;;;;;;29.13;15.95;;;5.70;99.90;;;;;;5055785;28;20235;-66
2021/11/26 11:25:39;;;;;;;36.42;18.08;;;5.60;99.90;;;;;;5055210;28;20203;-66
2021/11/26 11:28:09;;;;;;;33.85;16.85;;;5.60;99.90;;;;;;5055537;28;20239;-67
2021/11/26 11:30:39;;;;;;;38.05;19.30;;;5.70;99.90;;;;;;5055520;28;20219;-66
2021/11/26 11:33:05;;;;;;;32.67;16.30;;;5.70;99.90;;;;;;5055432;28;20246;-66
2021/11/26 11:35:35;;;;;;;31.48;16.30;;;5.70;99.90;;;;;;5055257;28;20611;-66
2021/11/26 11:38:03;;;;;;;35.85;18.50;;;5.60;99.90;;;;;;5055168;28;20199;-67
2021/11/26 11:40:32;;;;;;;32.30;17.08;;;5.60;99.90;;;;;;5055497;28;20314;-66
2021/11/26 11:43:13;;;;;;;35.00;17.60;;;5.60;99.90;;;;;;5055211;28;20199;-66
2021/11/26 11:45:41;;;;;;;48.08;19.65;;;5.50;99.90;;;;;;5055327;28;20231;-66
2021/11/26 11:48:10;;;;;;;44.88;19.23;;;5.40;99.90;;;;;;5055123;28;20632;-66
2021/11/26 11:50:48;;;;;;;35.90;19.08;;;5.40;99.90;;;;;;5055329;28;20227;-66
2021/11/26 11:53:29;;;;;;;31.55;18.05;;;5.60;99.90;;;;;;5055668;28;20203;-66
2021/11/26 11:56:07;;;;;;;29.27;15.98;;;5.60;99.90;;;;;;5054843;28;20207;-66
2021/11/26 11:58:46;;;;;;;29.95;16.70;;;5.70;99.90;;;;;;5055185;28;20195;-66
2021/11/26 12:01:22;;;;;;;35.85;17.58;;;5.70;99.90;;;;;;5055098;28;20665;-66
2021/11/26 12:03:51;;;;;;;27.40;15.55;;;5.70;99.90;;;;;;5055303;28;20206;-66
2021/11/26 12:06:18;;;;;;;29.52;15.60;;;5.70;99.90;;;;;;5054759;28;20203;-66
2021/11/26 12:08:46;;;;;;;28.65;15.45;;;5.70;99.90;;;;;;5054847;28;20219;-66
2021/11/26 12:11:24;;;;;;;28.38;16.20;;;5.70;99.90;;;;;;5055085;28;20310;-67
2021/11/26 12:14:02;;;;;;;30.52;15.52;;;5.70;99.90;;;;;;5055618;28;20211;-67
2021/11/26 12:16:30;;;;;;;30.58;15.88;;;5.70;99.90;;;;;;5055403;28;20695;-67
2021/11/26 12:18:57;;;;;;;27.35;15.13;;;5.70;99.90;;;;;;5055100;28;20255;-67
2021/11/26 12:21:26;;;;;;;29.80;16.25;;;5.80;99.90;;;;;;5055720;28;20289;-67
2021/11/26 12:24:10;;;;;;;27.35;14.30;;;5.90;99.90;;;;;;5055543;28;20237;-68
2021/11/26 12:26:45;;;;;;;30.05;16.42;;;5.90;99.90;;;;;;5055262;28;20203;-67
2021/11/26 12:29:13;;;;;;;28.55;17.10;;;5.80;99.90;;;;;;5055345;28;20237;-67
2021/11/26 12:31:41;;;;;;;27.10;15.75;;;5.80;99.90;;;;;;5055653;28;20290;-66
2021/11/26 12:34:10;;;;;;;27.20;15.00;;;5.90;99.90;;;;;;5055344;28;20239;-67
2021/11/26 12:36:40;;;;;;;27.05;14.82;;;5.90;99.90;;;;;;5055036;28;20294;-67
2021/11/26 12:39:11;;;;;;;32.70;15.30;;;5.80;99.90;;;;;;5055287;28;20250;-66
2021/11/26 12:41:40;;;;;;;32.53;16.52;;;5.80;99.90;;;;;;5055448;28;20195;-66
2021/11/26 12:44:08;;;;;;;28.90;15.25;;;5.80;99.90;;;;;;5055187;28;20737;-66